sensor_id;sensor_type;location;lat;lon;timestamp;temperature;humidity
27114;DHT22;14648;49.730;8.614;2023-01-29T00:01:50;1.90;51.10
27114;DHT22;14648;49.730;8.614;2023-01-29T00:04:16;1.90;51.10
27114;DHT22;14648;49.730;8.614;2023-01-29T00:06:42;1.90;51.10
27114;DHT22;14648;49.730;8.614;2023-01-29T00:09:08;1.90;51.00
27114;DHT22;14648;49.730;8.614;2023-01-29T00:11:34;2.00;51.00
27114;DHT22;14648;49.730;8.614;2023-01-29T00:14:00;1.90;51.00
27114;DHT22;14648;49.730;8.614;2023-01-29T00:16:26;1.90;51.00
27114;DHT22;14648;49.730;8.614;2023-01-29T00:18:52;1.90;51.00
27114;DHT22;14648;49.730;8.614;2023-01-29T00:21:19;1.90;51.00
27114;DHT22;14648;49.730;8.614;2023-01-29T00:23:49;1.90;51.10
27114;DHT22;14648;49.730;8.614;2023-01-29T00:26:16;1.90;51.00
27114;DHT22;14648;49.730;8.614;2023-01-29T00:28:43;1.90;51.00
27114;DHT22;14648;49.730;8.614;2023-01-29T00:31:15;1.90;51.10
27114;DHT22;14648;49.730;8.614;2023-01-29T00:33:41;1.80;51.00
27114;DHT22;14648;49.730;8.614;2023-01-29T00:36:09;1.90;51.10
27114;DHT22;14648;49.730;8.614;2023-01-29T00:38:37;1.90;51.00
27114;DHT22;14648;49.730;8.614;2023-01-29T00:41:11;1.90;51.00
27114;DHT22;14648;49.730;8.614;2023-01-29T00:43:57;1.90;51.00
27114;DHT22;14648;49.730;8.614;2023-01-29T00:46:42;1.90;51.00
27114;DHT22;14648;49.730;8.614;2023-01-29T00:49:08;1.90;51.00
27114;DHT22;14648;49.730;8.614;2023-01-29T00:51:36;1.90;51.00
27114;DHT22;14648;49.730;8.614;2023-01-29T00:54:03;1.90;51.00
27114;DHT22;14648;49.730;8.614;2023-01-29T00:56:34;1.90;51.10
27114;DHT22;14648;49.730;8.614;2023-01-29T00:59:01;1.90;51.20
27114;DHT22;14648;49.730;8.614;2023-01-29T01:01:27;1.90;51.20
27114;DHT22;14648;49.730;8.614;2023-01-29T01:04:12;1.90;51.20
27114;DHT22;14648;49.730;8.614;2023-01-29T01:06:40;1.90;51.20
27114;DHT22;14648;49.730;8.614;2023-01-29T01:09:07;1.90;51.20
27114;DHT22;14648;49.730;8.614;2023-01-29T01:11:52;1.90;51.20
27114;DHT22;14648;49.730;8.614;2023-01-29T01:14:18;1.90;51.30
27114;DHT22;14648;49.730;8.614;2023-01-29T01:16:45;1.90;51.20
27114;DHT22;14648;49.730;8.614;2023-01-29T01:19:13;1.90;51.20
27114;DHT22;14648;49.730;8.614;2023-01-29T01:21:39;1.90;51.10
27114;DHT22;14648;49.730;8.614;2023-01-29T01:24:10;1.90;51.10
27114;DHT22;14648;49.730;8.614;2023-01-29T01:26:36;1.90;51.10
27114;DHT22;14648;49.730;8.614;2023-01-29T01:29:02;1.90;51.20
27114;DHT22;14648;49.730;8.614;2023-01-29T01:31:27;1.90;51.10
27114;DHT22;14648;49.730;8.614;2023-01-29T01:33:54;2.00;51.10
27114;DHT22;14648;49.730;8.614;2023-01-29T01:36:21;1.90;51.10
27114;DHT22;14648;49.730;8.614;2023-01-29T01:38:47;1.90;51.20
27114;DHT22;14648;49.730;8.614;2023-01-29T01:41:19;1.90;51.20
27114;DHT22;14648;49.730;8.614;2023-01-29T01:44:00;2.00;51.20
27114;DHT22;14648;49.730;8.614;2023-01-29T01:46:28;2.00;51.10
27114;DHT22;14648;49.730;8.614;2023-01-29T01:49:07;2.00;51.10
27114;DHT22;14648;49.730;8.614;2023-01-29T01:51:39;2.00;51.00
27114;DHT22;14648;49.730;8.614;2023-01-29T01:54:15;2.00;51.00
27114;DHT22;14648;49.730;8.614;2023-01-29T01:56:48;2.00;51.00
27114;DHT22;14648;49.730;8.614;2023-01-29T01:59:21;2.00;51.00
27114;DHT22;14648;49.730;8.614;2023-01-29T02:01:50;1.90;51.00
27114;DHT22;14648;49.730;8.614;2023-01-29T02:04:22;2.00;51.00
27114;DHT22;14648;49.730;8.614;2023-01-29T02:07:11;2.00;51.00
27114;DHT22;14648;49.730;8.614;2023-01-29T02:10:07;1.90;51.00
27114;DHT22;14648;49.730;8.614;2023-01-29T02:12:36;2.00;50.90
27114;DHT22;14648;49.730;8.614;2023-01-29T02:15:03;1.90;50.90
27114;DHT22;14648;49.730;8.614;2023-01-29T02:17:30;1.90;50.90
27114;DHT22;14648;49.730;8.614;2023-01-29T02:20:18;1.90;50.90
27114;DHT22;14648;49.730;8.614;2023-01-29T02:28:53;1.80;50.70
27114;DHT22;14648;49.730;8.614;2023-01-29T02:32:34;1.80;50.60
27114;DHT22;14648;49.730;8.614;2023-01-29T02:35:22;1.70;50.40
27114;DHT22;14648;49.730;8.614;2023-01-29T02:41:07;1.70;50.60
27114;DHT22;14648;49.730;8.614;2023-01-29T02:44:09;1.70;50.50
27114;DHT22;14648;49.730;8.614;2023-01-29T02:46:59;1.60;51.10
27114;DHT22;14648;49.730;8.614;2023-01-29T02:49:51;1.60;50.60
27114;DHT22;14648;49.730;8.614;2023-01-29T02:52:37;1.60;50.70
27114;DHT22;14648;49.730;8.614;2023-01-29T02:55:17;1.50;50.70
27114;DHT22;14648;49.730;8.614;2023-01-29T02:57:48;1.60;50.60
27114;DHT22;14648;49.730;8.614;2023-01-29T03:00:25;1.50;51.30
27114;DHT22;14648;49.730;8.614;2023-01-29T03:06:06;1.50;50.80
27114;DHT22;14648;49.730;8.614;2023-01-29T03:11:14;1.50;50.70
27114;DHT22;14648;49.730;8.614;2023-01-29T03:14:02;1.50;50.70
27114;DHT22;14648;49.730;8.614;2023-01-29T03:16:50;1.50;50.70
27114;DHT22;14648;49.730;8.614;2023-01-29T03:22:04;1.60;50.70
27114;DHT22;14648;49.730;8.614;2023-01-29T03:24:43;1.50;50.90
27114;DHT22;14648;49.730;8.614;2023-01-29T03:27:35;1.50;51.00
27114;DHT22;14648;49.730;8.614;2023-01-29T03:30:24;1.50;51.00
27114;DHT22;14648;49.730;8.614;2023-01-29T03:33:13;1.60;51.10
27114;DHT22;14648;49.730;8.614;2023-01-29T03:35:50;1.60;51.20
27114;DHT22;14648;49.730;8.614;2023-01-29T03:38:21;1.60;51.20
27114;DHT22;14648;49.730;8.614;2023-01-29T03:41:07;1.60;51.20
27114;DHT22;14648;49.730;8.614;2023-01-29T03:44:13;1.60;51.30
27114;DHT22;14648;49.730;8.614;2023-01-29T03:49:56;1.60;51.30
27114;DHT22;14648;49.730;8.614;2023-01-29T03:52:31;1.60;51.30
27114;DHT22;14648;49.730;8.614;2023-01-29T03:55:27;1.60;51.30
27114;DHT22;14648;49.730;8.614;2023-01-29T03:58:14;1.60;51.40
27114;DHT22;14648;49.730;8.614;2023-01-29T04:00:51;1.60;51.40
27114;DHT22;14648;49.730;8.614;2023-01-29T04:03:34;1.60;51.40
27114;DHT22;14648;49.730;8.614;2023-01-29T04:06:21;1.60;51.40
27114;DHT22;14648;49.730;8.614;2023-01-29T04:09:04;1.70;51.50
27114;DHT22;14648;49.730;8.614;2023-01-29T04:11:32;1.60;51.50
27114;DHT22;14648;49.730;8.614;2023-01-29T04:14:01;1.70;51.50
27114;DHT22;14648;49.730;8.614;2023-01-29T04:16:31;1.70;51.50
27114;DHT22;14648;49.730;8.614;2023-01-29T04:19:03;1.70;51.50
27114;DHT22;14648;49.730;8.614;2023-01-29T04:21:29;1.70;51.50
27114;DHT22;14648;49.730;8.614;2023-01-29T04:23:56;1.70;51.50
27114;DHT22;14648;49.730;8.614;2023-01-29T04:40:58;1.70;51.60
27114;DHT22;14648;49.730;8.614;2023-01-29T04:46:27;1.60;51.50
27114;DHT22;14648;49.730;8.614;2023-01-29T04:49:26;1.50;51.50
27114;DHT22;14648;49.730;8.614;2023-01-29T04:52:08;1.50;51.60
27114;DHT22;14648;49.730;8.614;2023-01-29T04:55:02;1.50;51.60
27114;DHT22;14648;49.730;8.614;2023-01-29T04:57:42;1.50;51.60
27114;DHT22;14648;49.730;8.614;2023-01-29T05:00:36;1.40;51.50
27114;DHT22;14648;49.730;8.614;2023-01-29T05:03:06;1.40;51.50
27114;DHT22;14648;49.730;8.614;2023-01-29T05:05:34;1.40;51.50
27114;DHT22;14648;49.730;8.614;2023-01-29T05:08:02;1.40;51.50
27114;DHT22;14648;49.730;8.614;2023-01-29T05:10:29;1.40;51.50
27114;DHT22;14648;49.730;8.614;2023-01-29T05:13:02;1.40;51.50
27114;DHT22;14648;49.730;8.614;2023-01-29T05:15:44;1.40;51.50
27114;DHT22;14648;49.730;8.614;2023-01-29T05:18:13;1.40;52.20
27114;DHT22;14648;49.730;8.614;2023-01-29T05:20:40;1.40;51.50
27114;DHT22;14648;49.730;8.614;2023-01-29T05:23:09;1.40;51.50
27114;DHT22;14648;49.730;8.614;2023-01-29T05:25:39;1.40;51.60
27114;DHT22;14648;49.730;8.614;2023-01-29T05:28:05;1.40;52.30
27114;DHT22;14648;49.730;8.614;2023-01-29T05:30:36;1.40;51.70
27114;DHT22;14648;49.730;8.614;2023-01-29T05:33:03;1.40;51.80
27114;DHT22;14648;49.730;8.614;2023-01-29T05:35:30;1.40;51.80
27114;DHT22;14648;49.730;8.614;2023-01-29T05:37:56;1.40;51.80
27114;DHT22;14648;49.730;8.614;2023-01-29T05:40:22;1.40;51.90
27114;DHT22;14648;49.730;8.614;2023-01-29T05:42:48;1.40;51.80
27114;DHT22;14648;49.730;8.614;2023-01-29T05:45:16;1.40;51.80
27114;DHT22;14648;49.730;8.614;2023-01-29T05:47:45;1.40;51.80
27114;DHT22;14648;49.730;8.614;2023-01-29T05:50:11;1.40;51.90
27114;DHT22;14648;49.730;8.614;2023-01-29T05:52:37;1.40;51.90
27114;DHT22;14648;49.730;8.614;2023-01-29T05:55:04;1.40;51.90
27114;DHT22;14648;49.730;8.614;2023-01-29T05:57:30;1.40;52.00
27114;DHT22;14648;49.730;8.614;2023-01-29T06:00:00;1.40;51.90
27114;DHT22;14648;49.730;8.614;2023-01-29T06:02:29;1.40;51.90
27114;DHT22;14648;49.730;8.614;2023-01-29T06:04:55;1.50;52.00
27114;DHT22;14648;49.730;8.614;2023-01-29T06:07:21;1.50;52.70
27114;DHT22;14648;49.730;8.614;2023-01-29T06:09:48;1.50;52.00
27114;DHT22;14648;49.730;8.614;2023-01-29T06:12:14;1.50;52.00
27114;DHT22;14648;49.730;8.614;2023-01-29T06:14:40;1.50;51.90
27114;DHT22;14648;49.730;8.614;2023-01-29T06:17:06;1.50;51.90
27114;DHT22;14648;49.730;8.614;2023-01-29T06:19:33;1.50;52.00
27114;DHT22;14648;49.730;8.614;2023-01-29T06:21:58;1.50;52.00
27114;DHT22;14648;49.730;8.614;2023-01-29T06:24:24;1.50;51.90
27114;DHT22;14648;49.730;8.614;2023-01-29T06:26:50;1.50;51.90
27114;DHT22;14648;49.730;8.614;2023-01-29T06:29:15;1.50;51.90
27114;DHT22;14648;49.730;8.614;2023-01-29T06:31:41;1.50;51.90
27114;DHT22;14648;49.730;8.614;2023-01-29T06:34:08;1.40;51.90
27114;DHT22;14648;49.730;8.614;2023-01-29T06:36:34;1.40;52.00
27114;DHT22;14648;49.730;8.614;2023-01-29T06:39:01;1.40;52.00
27114;DHT22;14648;49.730;8.614;2023-01-29T06:41:27;1.40;52.00
27114;DHT22;14648;49.730;8.614;2023-01-29T06:43:52;1.40;52.10
27114;DHT22;14648;49.730;8.614;2023-01-29T06:46:18;1.40;52.00
27114;DHT22;14648;49.730;8.614;2023-01-29T06:48:44;1.40;52.00
27114;DHT22;14648;49.730;8.614;2023-01-29T06:51:10;1.40;52.00
27114;DHT22;14648;49.730;8.614;2023-01-29T06:53:38;1.40;52.00
27114;DHT22;14648;49.730;8.614;2023-01-29T06:56:04;1.40;52.00
27114;DHT22;14648;49.730;8.614;2023-01-29T06:58:32;1.40;52.00
27114;DHT22;14648;49.730;8.614;2023-01-29T07:01:06;1.40;52.00
27114;DHT22;14648;49.730;8.614;2023-01-29T07:03:33;1.40;52.00
27114;DHT22;14648;49.730;8.614;2023-01-29T07:05:58;1.40;52.10
27114;DHT22;14648;49.730;8.614;2023-01-29T07:08:24;1.30;52.20
27114;DHT22;14648;49.730;8.614;2023-01-29T07:10:52;1.30;52.20
27114;DHT22;14648;49.730;8.614;2023-01-29T07:13:20;1.30;52.20
27114;DHT22;14648;49.730;8.614;2023-01-29T07:15:46;1.30;52.20
27114;DHT22;14648;49.730;8.614;2023-01-29T07:18:11;1.30;52.20
27114;DHT22;14648;49.730;8.614;2023-01-29T07:20:41;1.30;52.20
27114;DHT22;14648;49.730;8.614;2023-01-29T07:23:11;1.30;52.20
27114;DHT22;14648;49.730;8.614;2023-01-29T07:25:38;1.20;52.20
27114;DHT22;14648;49.730;8.614;2023-01-29T07:28:05;1.30;52.30
27114;DHT22;14648;49.730;8.614;2023-01-29T07:30:33;1.20;52.20
27114;DHT22;14648;49.730;8.614;2023-01-29T07:33:07;1.30;52.30
27114;DHT22;14648;49.730;8.614;2023-01-29T07:35:39;1.30;52.30
27114;DHT22;14648;49.730;8.614;2023-01-29T07:38:09;1.30;52.30
27114;DHT22;14648;49.730;8.614;2023-01-29T07:40:36;1.30;52.30
27114;DHT22;14648;49.730;8.614;2023-01-29T07:43:04;1.30;52.30
27114;DHT22;14648;49.730;8.614;2023-01-29T07:45:33;1.40;52.30
27114;DHT22;14648;49.730;8.614;2023-01-29T07:48:02;1.40;52.20
27114;DHT22;14648;49.730;8.614;2023-01-29T07:50:30;1.40;52.20
27114;DHT22;14648;49.730;8.614;2023-01-29T07:52:56;1.40;52.20
27114;DHT22;14648;49.730;8.614;2023-01-29T07:55:23;1.40;52.20
27114;DHT22;14648;49.730;8.614;2023-01-29T07:58:00;1.50;52.20
27114;DHT22;14648;49.730;8.614;2023-01-29T08:00:28;1.50;52.30
27114;DHT22;14648;49.730;8.614;2023-01-29T08:03:01;1.50;52.30
27114;DHT22;14648;49.730;8.614;2023-01-29T08:05:29;1.50;52.40
27114;DHT22;14648;49.730;8.614;2023-01-29T08:07:54;1.60;52.30
27114;DHT22;14648;49.730;8.614;2023-01-29T08:10:20;1.60;52.30
27114;DHT22;14648;49.730;8.614;2023-01-29T08:12:46;1.60;52.40
27114;DHT22;14648;49.730;8.614;2023-01-29T08:15:12;1.60;52.40
27114;DHT22;14648;49.730;8.614;2023-01-29T08:17:38;1.70;52.50
27114;DHT22;14648;49.730;8.614;2023-01-29T08:20:06;1.70;52.40
27114;DHT22;14648;49.730;8.614;2023-01-29T08:22:33;1.70;52.50
27114;DHT22;14648;49.730;8.614;2023-01-29T08:25:00;1.70;52.60
27114;DHT22;14648;49.730;8.614;2023-01-29T08:27:30;1.70;52.70
27114;DHT22;14648;49.730;8.614;2023-01-29T08:29:57;1.70;52.70
27114;DHT22;14648;49.730;8.614;2023-01-29T08:32:24;1.80;52.60
27114;DHT22;14648;49.730;8.614;2023-01-29T08:34:51;1.90;52.70
27114;DHT22;14648;49.730;8.614;2023-01-29T08:37:21;2.00;52.60
27114;DHT22;14648;49.730;8.614;2023-01-29T08:39:47;2.00;52.60
27114;DHT22;14648;49.730;8.614;2023-01-29T08:42:13;2.10;52.60
27114;DHT22;14648;49.730;8.614;2023-01-29T08:44:39;2.10;52.50
27114;DHT22;14648;49.730;8.614;2023-01-29T08:47:05;2.10;52.60
27114;DHT22;14648;49.730;8.614;2023-01-29T08:49:30;2.20;52.50
27114;DHT22;14648;49.730;8.614;2023-01-29T08:51:56;2.20;52.40
27114;DHT22;14648;49.730;8.614;2023-01-29T08:54:22;2.10;52.40
27114;DHT22;14648;49.730;8.614;2023-01-29T08:56:49;2.10;52.50
27114;DHT22;14648;49.730;8.614;2023-01-29T08:59:15;2.10;52.50
27114;DHT22;14648;49.730;8.614;2023-01-29T09:01:45;2.10;52.60
27114;DHT22;14648;49.730;8.614;2023-01-29T09:04:10;2.10;52.40
27114;DHT22;14648;49.730;8.614;2023-01-29T09:06:36;2.10;53.00
27114;DHT22;14648;49.730;8.614;2023-01-29T09:09:02;2.20;52.30
27114;DHT22;14648;49.730;8.614;2023-01-29T09:11:27;2.20;52.30
27114;DHT22;14648;49.730;8.614;2023-01-29T09:13:53;2.30;52.30
27114;DHT22;14648;49.730;8.614;2023-01-29T09:16:20;2.40;52.30
27114;DHT22;14648;49.730;8.614;2023-01-29T09:18:45;2.50;52.30
27114;DHT22;14648;49.730;8.614;2023-01-29T09:21:11;2.60;52.20
27114;DHT22;14648;49.730;8.614;2023-01-29T09:23:37;2.70;52.20
27114;DHT22;14648;49.730;8.614;2023-01-29T09:26:02;2.90;52.20
27114;DHT22;14648;49.730;8.614;2023-01-29T09:28:28;2.80;52.00
27114;DHT22;14648;49.730;8.614;2023-01-29T09:30:55;2.90;52.10
27114;DHT22;14648;49.730;8.614;2023-01-29T09:33:21;2.90;52.10
27114;DHT22;14648;49.730;8.614;2023-01-29T09:35:48;2.90;52.00
27114;DHT22;14648;49.730;8.614;2023-01-29T09:38:14;3.00;52.10
27114;DHT22;14648;49.730;8.614;2023-01-29T09:40:56;3.00;51.90
27114;DHT22;14648;49.730;8.614;2023-01-29T09:43:42;3.00;51.70
27114;DHT22;14648;49.730;8.614;2023-01-29T09:46:34;3.10;51.70
27114;DHT22;14648;49.730;8.614;2023-01-29T09:49:16;3.10;51.50
27114;DHT22;14648;49.730;8.614;2023-01-29T09:52:01;3.10;51.50
27114;DHT22;14648;49.730;8.614;2023-01-29T09:54:34;3.10;51.40
27114;DHT22;14648;49.730;8.614;2023-01-29T09:57:16;3.10;51.30
27114;DHT22;14648;49.730;8.614;2023-01-29T09:59:46;3.10;51.30
27114;DHT22;14648;49.730;8.614;2023-01-29T10:02:41;3.10;51.30
27114;DHT22;14648;49.730;8.614;2023-01-29T10:09:01;3.20;51.30
27114;DHT22;14648;49.730;8.614;2023-01-29T10:14:58;3.30;51.20
27114;DHT22;14648;49.730;8.614;2023-01-29T10:23:29;3.30;50.80
27114;DHT22;14648;49.730;8.614;2023-01-29T10:25:57;3.40;50.90
27114;DHT22;14648;49.730;8.614;2023-01-29T10:28:41;3.40;50.70
27114;DHT22;14648;49.730;8.614;2023-01-29T10:34:03;3.30;50.70
27114;DHT22;14648;49.730;8.614;2023-01-29T10:36:46;3.40;50.70
27114;DHT22;14648;49.730;8.614;2023-01-29T10:39:19;3.40;50.70
27114;DHT22;14648;49.730;8.614;2023-01-29T10:52:59;3.80;50.70
27114;DHT22;14648;49.730;8.614;2023-01-29T11:01:01;3.90;50.60
27114;DHT22;14648;49.730;8.614;2023-01-29T11:03:32;3.90;50.90
27114;DHT22;14648;49.730;8.614;2023-01-29T11:06:08;3.80;50.90
27114;DHT22;14648;49.730;8.614;2023-01-29T11:11:56;3.80;50.80
27114;DHT22;14648;49.730;8.614;2023-01-29T11:14:27;3.90;50.80
27114;DHT22;14648;49.730;8.614;2023-01-29T11:16:56;4.00;50.90
27114;DHT22;14648;49.730;8.614;2023-01-29T11:19:38;4.20;51.00
27114;DHT22;14648;49.730;8.614;2023-01-29T11:24:45;4.80;50.80
27114;DHT22;14648;49.730;8.614;2023-01-29T11:27:20;5.00;50.90
27114;DHT22;14648;49.730;8.614;2023-01-29T11:29:51;5.30;50.70
27114;DHT22;14648;49.730;8.614;2023-01-29T11:35:07;5.60;50.50
27114;DHT22;14648;49.730;8.614;2023-01-29T11:37:45;5.80;50.10
27114;DHT22;14648;49.730;8.614;2023-01-29T11:40:35;5.90;50.20
27114;DHT22;14648;49.730;8.614;2023-01-29T11:43:17;6.10;49.90
27114;DHT22;14648;49.730;8.614;2023-01-29T11:45:49;6.20;49.10
27114;DHT22;14648;49.730;8.614;2023-01-29T11:48:24;6.20;49.20
27114;DHT22;14648;49.730;8.614;2023-01-29T11:50:58;6.30;49.30
27114;DHT22;14648;49.730;8.614;2023-01-29T11:56:40;6.50;49.10
27114;DHT22;14648;49.730;8.614;2023-01-29T11:59:29;6.60;48.80
27114;DHT22;14648;49.730;8.614;2023-01-29T12:05:00;6.50;48.60
27114;DHT22;14648;49.730;8.614;2023-01-29T12:07:31;6.50;49.10
27114;DHT22;14648;49.730;8.614;2023-01-29T12:09:58;6.60;49.00
27114;DHT22;14648;49.730;8.614;2023-01-29T12:12:40;6.60;49.00
27114;DHT22;14648;49.730;8.614;2023-01-29T12:15:26;6.70;48.30
27114;DHT22;14648;49.730;8.614;2023-01-29T12:18:18;6.70;48.40
27114;DHT22;14648;49.730;8.614;2023-01-29T12:20:58;6.90;48.50
27114;DHT22;14648;49.730;8.614;2023-01-29T12:23:54;7.10;48.60
27114;DHT22;14648;49.730;8.614;2023-01-29T12:27:14;7.30;48.00
27114;DHT22;14648;49.730;8.614;2023-01-29T12:30:02;7.40;47.60
27114;DHT22;14648;49.730;8.614;2023-01-29T12:32:42;7.30;47.00
27114;DHT22;14648;49.730;8.614;2023-01-29T12:35:37;7.20;46.80
27114;DHT22;14648;49.730;8.614;2023-01-29T12:38:21;7.20;47.10
27114;DHT22;14648;49.730;8.614;2023-01-29T12:40:50;7.10;46.90
27114;DHT22;14648;49.730;8.614;2023-01-29T12:46:07;7.00;47.20
27114;DHT22;14648;49.730;8.614;2023-01-29T12:48:41;7.00;47.20
27114;DHT22;14648;49.730;8.614;2023-01-29T12:51:15;6.90;46.80
27114;DHT22;14648;49.730;8.614;2023-01-29T12:54:02;6.80;46.70
27114;DHT22;14648;49.730;8.614;2023-01-29T12:56:38;6.70;46.80
27114;DHT22;14648;49.730;8.614;2023-01-29T12:59:44;6.70;46.30
27114;DHT22;14648;49.730;8.614;2023-01-29T13:02:31;6.50;46.30
27114;DHT22;14648;49.730;8.614;2023-01-29T13:05:18;6.30;46.30
27114;DHT22;14648;49.730;8.614;2023-01-29T13:07:51;6.10;46.10
27114;DHT22;14648;49.730;8.614;2023-01-29T13:10:24;6.10;46.30
27114;DHT22;14648;49.730;8.614;2023-01-29T13:12:59;6.10;45.70
27114;DHT22;14648;49.730;8.614;2023-01-29T13:15:38;6.10;45.60
27114;DHT22;14648;49.730;8.614;2023-01-29T13:21:03;6.30;45.60
27114;DHT22;14648;49.730;8.614;2023-01-29T13:23:38;6.30;45.60
27114;DHT22;14648;49.730;8.614;2023-01-29T13:26:07;6.40;45.60
27114;DHT22;14648;49.730;8.614;2023-01-29T13:28:35;6.50;45.80
27114;DHT22;14648;49.730;8.614;2023-01-29T13:31:26;6.50;45.70
27114;DHT22;14648;49.730;8.614;2023-01-29T13:36:26;6.40;45.30
27114;DHT22;14648;49.730;8.614;2023-01-29T13:39:01;6.30;45.30
27114;DHT22;14648;49.730;8.614;2023-01-29T13:41:37;6.20;45.20
27114;DHT22;14648;49.730;8.614;2023-01-29T13:44:22;6.00;44.90
27114;DHT22;14648;49.730;8.614;2023-01-29T13:47:01;5.90;44.90
27114;DHT22;14648;49.730;8.614;2023-01-29T13:49:37;5.80;44.70
27114;DHT22;14648;49.730;8.614;2023-01-29T14:07:55;5.50;44.30
27114;DHT22;14648;49.730;8.614;2023-01-29T14:10:30;5.50;44.30
27114;DHT22;14648;49.730;8.614;2023-01-29T14:18:29;5.30;45.20
27114;DHT22;14648;49.730;8.614;2023-01-29T14:21:00;5.30;44.60
27114;DHT22;14648;49.730;8.614;2023-01-29T14:23:29;5.30;44.40
27114;DHT22;14648;49.730;8.614;2023-01-29T14:26:03;5.40;44.70
27114;DHT22;14648;49.730;8.614;2023-01-29T14:28:34;5.40;44.70
27114;DHT22;14648;49.730;8.614;2023-01-29T14:31:01;5.50;44.70
27114;DHT22;14648;49.730;8.614;2023-01-29T14:33:34;5.50;44.50
27114;DHT22;14648;49.730;8.614;2023-01-29T14:36:16;5.40;44.30
27114;DHT22;14648;49.730;8.614;2023-01-29T14:38:47;5.40;44.40
27114;DHT22;14648;49.730;8.614;2023-01-29T14:47:21;5.30;44.40
27114;DHT22;14648;49.730;8.614;2023-01-29T14:56:17;5.30;44.40
27114;DHT22;14648;49.730;8.614;2023-01-29T14:59:00;5.20;44.20
27114;DHT22;14648;49.730;8.614;2023-01-29T15:01:55;5.10;44.30
27114;DHT22;14648;49.730;8.614;2023-01-29T15:04:45;5.00;44.40
27114;DHT22;14648;49.730;8.614;2023-01-29T15:07:22;5.00;44.40
27114;DHT22;14648;49.730;8.614;2023-01-29T15:10:31;5.00;44.50
27114;DHT22;14648;49.730;8.614;2023-01-29T15:13:18;5.00;44.40
27114;DHT22;14648;49.730;8.614;2023-01-29T15:16:13;4.90;44.20
27114;DHT22;14648;49.730;8.614;2023-01-29T15:18:44;4.70;44.10
27114;DHT22;14648;49.730;8.614;2023-01-29T15:21:17;4.60;43.90
27114;DHT22;14648;49.730;8.614;2023-01-29T15:23:45;4.50;44.00
27114;DHT22;14648;49.730;8.614;2023-01-29T15:26:23;4.50;44.00
27114;DHT22;14648;49.730;8.614;2023-01-29T15:29:00;4.30;43.90
27114;DHT22;14648;49.730;8.614;2023-01-29T15:31:27;4.30;44.00
27114;DHT22;14648;49.730;8.614;2023-01-29T15:33:55;4.20;44.00
27114;DHT22;14648;49.730;8.614;2023-01-29T15:36:28;4.20;44.00
27114;DHT22;14648;49.730;8.614;2023-01-29T15:41:50;4.00;44.00
27114;DHT22;14648;49.730;8.614;2023-01-29T15:44:29;3.90;44.00
27114;DHT22;14648;49.730;8.614;2023-01-29T15:46:57;3.80;44.00
27114;DHT22;14648;49.730;8.614;2023-01-29T15:49:29;3.70;44.10
27114;DHT22;14648;49.730;8.614;2023-01-29T15:52:00;3.60;44.00
27114;DHT22;14648;49.730;8.614;2023-01-29T15:54:30;3.50;44.10
27114;DHT22;14648;49.730;8.614;2023-01-29T15:56:58;3.40;44.10
27114;DHT22;14648;49.730;8.614;2023-01-29T15:59:34;3.30;44.20
27114;DHT22;14648;49.730;8.614;2023-01-29T16:02:40;3.30;44.30
27114;DHT22;14648;49.730;8.614;2023-01-29T16:05:13;3.10;44.30
27114;DHT22;14648;49.730;8.614;2023-01-29T16:07:42;3.10;44.50
27114;DHT22;14648;49.730;8.614;2023-01-29T16:10:20;3.00;44.30
27114;DHT22;14648;49.730;8.614;2023-01-29T16:12:53;2.90;44.40
27114;DHT22;14648;49.730;8.614;2023-01-29T16:15:38;2.90;44.50
27114;DHT22;14648;49.730;8.614;2023-01-29T16:18:21;2.80;44.60
27114;DHT22;14648;49.730;8.614;2023-01-29T16:20:56;2.70;44.50
27114;DHT22;14648;49.730;8.614;2023-01-29T16:23:26;2.60;44.50
27114;DHT22;14648;49.730;8.614;2023-01-29T16:26:00;2.50;44.60
27114;DHT22;14648;49.730;8.614;2023-01-29T16:28:39;2.50;44.70
27114;DHT22;14648;49.730;8.614;2023-01-29T16:31:06;2.40;44.80
27114;DHT22;14648;49.730;8.614;2023-01-29T16:33:35;2.40;44.80
27114;DHT22;14648;49.730;8.614;2023-01-29T16:36:17;2.30;44.90
27114;DHT22;14648;49.730;8.614;2023-01-29T16:38:49;2.30;45.00
27114;DHT22;14648;49.730;8.614;2023-01-29T16:43:49;2.10;45.00
27114;DHT22;14648;49.730;8.614;2023-01-29T16:46:34;2.10;45.10
27114;DHT22;14648;49.730;8.614;2023-01-29T16:51:54;2.00;45.20
27114;DHT22;14648;49.730;8.614;2023-01-29T16:54:24;2.00;45.30
27114;DHT22;14648;49.730;8.614;2023-01-29T16:56:56;2.00;45.40
27114;DHT22;14648;49.730;8.614;2023-01-29T16:59:35;1.90;45.40
27114;DHT22;14648;49.730;8.614;2023-01-29T17:02:03;1.90;45.60
27114;DHT22;14648;49.730;8.614;2023-01-29T17:04:41;1.80;45.50
27114;DHT22;14648;49.730;8.614;2023-01-29T17:07:16;1.80;45.50
27114;DHT22;14648;49.730;8.614;2023-01-29T17:09:53;1.80;45.60
27114;DHT22;14648;49.730;8.614;2023-01-29T17:12:22;1.70;45.70
27114;DHT22;14648;49.730;8.614;2023-01-29T17:15:00;1.70;45.70
27114;DHT22;14648;49.730;8.614;2023-01-29T17:17:32;1.70;45.90
27114;DHT22;14648;49.730;8.614;2023-01-29T17:20:12;1.70;45.90
27114;DHT22;14648;49.730;8.614;2023-01-29T17:22:40;1.70;46.00
27114;DHT22;14648;49.730;8.614;2023-01-29T17:25:07;1.70;45.90
27114;DHT22;14648;49.730;8.614;2023-01-29T17:27:34;1.70;46.00
27114;DHT22;14648;49.730;8.614;2023-01-29T17:29:59;1.70;46.10
27114;DHT22;14648;49.730;8.614;2023-01-29T17:32:27;1.70;46.20
27114;DHT22;14648;49.730;8.614;2023-01-29T17:34:53;1.70;47.50
27114;DHT22;14648;49.730;8.614;2023-01-29T17:37:19;1.70;46.90
27114;DHT22;14648;49.730;8.614;2023-01-29T17:39:46;1.70;46.80
27114;DHT22;14648;49.730;8.614;2023-01-29T17:42:18;1.70;47.20
27114;DHT22;14648;49.730;8.614;2023-01-29T17:44:47;1.70;46.80
27114;DHT22;14648;49.730;8.614;2023-01-29T17:47:13;1.70;46.90
27114;DHT22;14648;49.730;8.614;2023-01-29T17:49:40;1.70;46.90
27114;DHT22;14648;49.730;8.614;2023-01-29T17:52:06;1.60;46.90
27114;DHT22;14648;49.730;8.614;2023-01-29T17:54:31;1.60;46.90
27114;DHT22;14648;49.730;8.614;2023-01-29T17:56:58;1.60;46.90
27114;DHT22;14648;49.730;8.614;2023-01-29T17:59:29;1.60;46.90
27114;DHT22;14648;49.730;8.614;2023-01-29T18:01:58;1.60;47.00
27114;DHT22;14648;49.730;8.614;2023-01-29T18:04:25;1.60;47.80
27114;DHT22;14648;49.730;8.614;2023-01-29T18:06:51;1.60;47.10
27114;DHT22;14648;49.730;8.614;2023-01-29T18:09:20;1.60;47.10
27114;DHT22;14648;49.730;8.614;2023-01-29T18:11:46;1.60;47.10
27114;DHT22;14648;49.730;8.614;2023-01-29T18:14:13;1.60;47.20
27114;DHT22;14648;49.730;8.614;2023-01-29T18:16:41;1.60;47.20
27114;DHT22;14648;49.730;8.614;2023-01-29T18:19:23;1.60;47.20
27114;DHT22;14648;49.730;8.614;2023-01-29T18:21:52;1.60;47.20
27114;DHT22;14648;49.730;8.614;2023-01-29T18:24:20;1.60;48.70
27114;DHT22;14648;49.730;8.614;2023-01-29T18:26:47;1.70;48.20
27114;DHT22;14648;49.730;8.614;2023-01-29T18:29:13;1.70;48.00
27114;DHT22;14648;49.730;8.614;2023-01-29T18:31:39;1.70;48.00
27114;DHT22;14648;49.730;8.614;2023-01-29T18:34:05;1.70;48.00
27114;DHT22;14648;49.730;8.614;2023-01-29T18:36:33;1.70;47.90
27114;DHT22;14648;49.730;8.614;2023-01-29T18:39:00;1.70;48.00